sensor_id;sensor_type;location;lat;lon;timestamp;P1;durP1;ratioP1;P2;durP2;ratioP2
30818;SDS011;17546;42.674;23.284;2022-07-29T00:01:05;11.63;;;8.30;;
30818;SDS011;17546;42.674;23.284;2022-07-29T00:03:31;12.48;;;8.50;;
30818;SDS011;17546;42.674;23.284;2022-07-29T00:05:57;10.70;;;8.13;;
30818;SDS011;17546;42.674;23.284;2022-07-29T00:08:22;11.82;;;7.93;;
30818;SDS011;17546;42.674;23.284;2022-07-29T00:10:47;10.90;;;7.35;;
30818;SDS011;17546;42.674;23.284;2022-07-29T00:13:13;12.75;;;6.88;;
30818;SDS011;17546;42.674;23.284;2022-07-29T00:15:38;12.20;;;6.95;;
30818;SDS011;17546;42.674;23.284;2022-07-29T00:18:04;8.95;;;6.85;;
30818;SDS011;17546;42.674;23.284;2022-07-29T00:20:30;10.82;;;7.13;;
30818;SDS011;17546;42.674;23.284;2022-07-29T00:22:55;9.55;;;6.88;;
30818;SDS011;17546;42.674;23.284;2022-07-29T00:25:21;11.00;;;7.10;;
30818;SDS011;17546;42.674;23.284;2022-07-29T00:27:46;8.85;;;6.63;;
30818;SDS011;17546;42.674;23.284;2022-07-29T00:30:12;10.80;;;6.90;;
30818;SDS011;17546;42.674;23.284;2022-07-29T00:32:38;12.50;;;7.07;;
30818;SDS011;17546;42.674;23.284;2022-07-29T00:35:04;9.70;;;6.40;;
30818;SDS011;17546;42.674;23.284;2022-07-29T00:37:48;8.40;;;7.07;;
30818;SDS011;17546;42.674;23.284;2022-07-29T00:40:14;10.07;;;6.55;;
30818;SDS011;17546;42.674;23.284;2022-07-29T00:42:43;10.65;;;7.50;;
30818;SDS011;17546;42.674;23.284;2022-07-29T00:45:13;12.57;;;7.47;;
30818;SDS011;17546;42.674;23.284;2022-07-29T00:47:39;11.68;;;7.47;;
30818;SDS011;17546;42.674;23.284;2022-07-29T00:50:05;10.73;;;7.47;;
30818;SDS011;17546;42.674;23.284;2022-07-29T00:52:32;13.43;;;8.13;;
30818;SDS011;17546;42.674;23.284;2022-07-29T00:55:00;12.07;;;8.32;;
30818;SDS011;17546;42.674;23.284;2022-07-29T00:57:27;13.00;;;8.65;;
30818;SDS011;17546;42.674;23.284;2022-07-29T00:59:52;16.85;;;10.15;;
30818;SDS011;17546;42.674;23.284;2022-07-29T01:02:18;16.52;;;9.63;;
30818;SDS011;17546;42.674;23.284;2022-07-29T01:04:43;21.00;;;10.75;;
30818;SDS011;17546;42.674;23.284;2022-07-29T01:07:08;16.77;;;10.63;;
30818;SDS011;17546;42.674;23.284;2022-07-29T01:09:35;17.98;;;11.02;;
30818;SDS011;17546;42.674;23.284;2022-07-29T01:12:02;17.00;;;10.45;;
30818;SDS011;17546;42.674;23.284;2022-07-29T01:14:28;15.85;;;9.70;;
30818;SDS011;17546;42.674;23.284;2022-07-29T01:17:02;14.95;;;10.48;;
30818;SDS011;17546;42.674;23.284;2022-07-29T01:22:25;13.95;;;9.73;;
30818;SDS011;17546;42.674;23.284;2022-07-29T01:30:25;13.40;;;9.70;;
30818;SDS011;17546;42.674;23.284;2022-07-29T01:32:54;17.38;;;10.45;;
30818;SDS011;17546;42.674;23.284;2022-07-29T01:35:26;17.15;;;11.20;;
30818;SDS011;17546;42.674;23.284;2022-07-29T01:38:12;15.57;;;10.60;;
30818;SDS011;17546;42.674;23.284;2022-07-29T01:40:44;18.02;;;10.68;;
30818;SDS011;17546;42.674;23.284;2022-07-29T01:43:20;14.55;;;10.05;;
30818;SDS011;17546;42.674;23.284;2022-07-29T01:46:04;16.05;;;10.68;;
30818;SDS011;17546;42.674;23.284;2022-07-29T01:51:16;12.80;;;9.80;;
30818;SDS011;17546;42.674;23.284;2022-07-29T01:56:42;15.10;;;10.55;;
30818;SDS011;17546;42.674;23.284;2022-07-29T01:59:10;15.13;;;10.80;;
30818;SDS011;17546;42.674;23.284;2022-07-29T02:01:37;16.30;;;11.20;;
30818;SDS011;17546;42.674;23.284;2022-07-29T02:04:05;14.35;;;10.63;;
30818;SDS011;17546;42.674;23.284;2022-07-29T02:06:34;17.48;;;10.68;;
30818;SDS011;17546;42.674;23.284;2022-07-29T02:09:03;12.88;;;9.85;;
30818;SDS011;17546;42.674;23.284;2022-07-29T02:11:33;20.75;;;10.35;;
30818;SDS011;17546;42.674;23.284;2022-07-29T02:14:00;13.15;;;9.82;;
30818;SDS011;17546;42.674;23.284;2022-07-29T02:16:27;14.77;;;9.13;;
30818;SDS011;17546;42.674;23.284;2022-07-29T02:18:56;16.23;;;9.07;;
30818;SDS011;17546;42.674;23.284;2022-07-29T02:21:24;14.13;;;8.80;;
30818;SDS011;17546;42.674;23.284;2022-07-29T02:23:54;18.15;;;8.40;;
30818;SDS011;17546;42.674;23.284;2022-07-29T02:26:24;17.30;;;9.20;;
30818;SDS011;17546;42.674;23.284;2022-07-29T02:28:52;17.50;;;9.07;;
30818;SDS011;17546;42.674;23.284;2022-07-29T02:31:21;12.23;;;8.77;;
30818;SDS011;17546;42.674;23.284;2022-07-29T02:33:49;19.08;;;9.65;;
30818;SDS011;17546;42.674;23.284;2022-07-29T02:36:16;14.35;;;8.90;;
30818;SDS011;17546;42.674;23.284;2022-07-29T02:38:44;16.90;;;9.35;;
30818;SDS011;17546;42.674;23.284;2022-07-29T02:41:17;14.35;;;9.40;;
30818;SDS011;17546;42.674;23.284;2022-07-29T02:43:43;15.13;;;10.15;;
30818;SDS011;17546;42.674;23.284;2022-07-29T02:46:13;17.88;;;9.57;;
30818;SDS011;17546;42.674;23.284;2022-07-29T02:48:46;17.15;;;9.48;;
30818;SDS011;17546;42.674;23.284;2022-07-29T02:51:21;18.65;;;10.10;;
30818;SDS011;17546;42.674;23.284;2022-07-29T02:53:51;13.88;;;9.98;;
30818;SDS011;17546;42.674;23.284;2022-07-29T02:56:21;16.80;;;9.90;;
30818;SDS011;17546;42.674;23.284;2022-07-29T02:58:56;15.38;;;10.32;;
30818;SDS011;17546;42.674;23.284;2022-07-29T03:01:24;19.95;;;10.85;;
30818;SDS011;17546;42.674;23.284;2022-07-29T03:03:55;15.38;;;10.73;;
30818;SDS011;17546;42.674;23.284;2022-07-29T03:06:22;16.58;;;9.95;;
30818;SDS011;17546;42.674;23.284;2022-07-29T03:08:50;14.63;;;9.18;;
30818;SDS011;17546;42.674;23.284;2022-07-29T03:11:16;10.95;;;8.27;;
30818;SDS011;17546;42.674;23.284;2022-07-29T03:13:42;13.50;;;8.30;;
30818;SDS011;17546;42.674;23.284;2022-07-29T03:16:10;19.58;;;9.18;;
30818;SDS011;17546;42.674;23.284;2022-07-29T03:18:40;15.50;;;9.43;;
30818;SDS011;17546;42.674;23.284;2022-07-29T03:21:10;18.75;;;9.52;;
30818;SDS011;17546;42.674;23.284;2022-07-29T03:23:36;17.90;;;9.32;;
30818;SDS011;17546;42.674;23.284;2022-07-29T03:26:01;15.38;;;9.63;;
30818;SDS011;17546;42.674;23.284;2022-07-29T03:28:27;15.73;;;9.23;;
30818;SDS011;17546;42.674;23.284;2022-07-29T03:30:53;23.92;;;9.35;;
30818;SDS011;17546;42.674;23.284;2022-07-29T03:33:19;15.68;;;10.15;;
30818;SDS011;17546;42.674;23.284;2022-07-29T03:35:44;17.30;;;9.25;;
30818;SDS011;17546;42.674;23.284;2022-07-29T03:38:10;16.45;;;9.90;;
30818;SDS011;17546;42.674;23.284;2022-07-29T03:40:55;14.50;;;9.88;;
30818;SDS011;17546;42.674;23.284;2022-07-29T03:43:23;16.23;;;9.88;;
30818;SDS011;17546;42.674;23.284;2022-07-29T03:45:52;18.13;;;10.38;;
30818;SDS011;17546;42.674;23.284;2022-07-29T03:48:20;20.67;;;9.50;;
30818;SDS011;17546;42.674;23.284;2022-07-29T03:50:48;15.93;;;9.82;;
30818;SDS011;17546;42.674;23.284;2022-07-29T03:53:15;17.67;;;10.90;;
30818;SDS011;17546;42.674;23.284;2022-07-29T03:55:42;15.23;;;11.82;;
30818;SDS011;17546;42.674;23.284;2022-07-29T03:58:10;14.98;;;11.32;;
30818;SDS011;17546;42.674;23.284;2022-07-29T04:00:37;21.85;;;11.70;;
30818;SDS011;17546;42.674;23.284;2022-07-29T04:03:03;18.55;;;11.43;;
30818;SDS011;17546;42.674;23.284;2022-07-29T04:05:29;24.08;;;11.55;;
30818;SDS011;17546;42.674;23.284;2022-07-29T04:07:55;18.05;;;11.30;;
30818;SDS011;17546;42.674;23.284;2022-07-29T04:10:21;19.55;;;10.77;;
30818;SDS011;17546;42.674;23.284;2022-07-29T04:12:48;18.02;;;11.77;;
30818;SDS011;17546;42.674;23.284;2022-07-29T04:15:14;30.73;;;11.45;;
30818;SDS011;17546;42.674;23.284;2022-07-29T04:17:39;25.08;;;12.70;;
30818;SDS011;17546;42.674;23.284;2022-07-29T04:20:05;19.00;;;11.77;;
30818;SDS011;17546;42.674;23.284;2022-07-29T04:22:30;20.60;;;12.40;;
30818;SDS011;17546;42.674;23.284;2022-07-29T04:24:56;23.65;;;11.15;;
30818;SDS011;17546;42.674;23.284;2022-07-29T04:27:21;19.00;;;11.90;;
30818;SDS011;17546;42.674;23.284;2022-07-29T04:29:47;17.75;;;12.48;;
30818;SDS011;17546;42.674;23.284;2022-07-29T04:32:12;18.98;;;12.95;;
30818;SDS011;17546;42.674;23.284;2022-07-29T04:34:38;18.98;;;12.80;;
30818;SDS011;17546;42.674;23.284;2022-07-29T04:37:03;21.38;;;13.38;;
30818;SDS011;17546;42.674;23.284;2022-07-29T04:39:28;21.90;;;13.35;;
30818;SDS011;17546;42.674;23.284;2022-07-29T04:41:55;25.85;;;13.75;;
30818;SDS011;17546;42.674;23.284;2022-07-29T04:44:21;29.20;;;14.18;;
30818;SDS011;17546;42.674;23.284;2022-07-29T04:46:47;25.27;;;13.65;;
30818;SDS011;17546;42.674;23.284;2022-07-29T04:49:12;19.08;;;12.07;;
30818;SDS011;17546;42.674;23.284;2022-07-29T04:51:38;17.63;;;13.00;;
30818;SDS011;17546;42.674;23.284;2022-07-29T04:54:03;28.25;;;14.57;;
30818;SDS011;17546;42.674;23.284;2022-07-29T04:56:29;22.27;;;14.23;;
30818;SDS011;17546;42.674;23.284;2022-07-29T04:58:54;22.25;;;13.98;;
30818;SDS011;17546;42.674;23.284;2022-07-29T05:01:20;20.05;;;12.68;;
30818;SDS011;17546;42.674;23.284;2022-07-29T05:03:45;31.92;;;13.13;;
30818;SDS011;17546;42.674;23.284;2022-07-29T05:06:11;25.05;;;13.50;;
30818;SDS011;17546;42.674;23.284;2022-07-29T05:08:37;19.42;;;12.63;;
30818;SDS011;17546;42.674;23.284;2022-07-29T05:11:03;22.55;;;13.82;;
30818;SDS011;17546;42.674;23.284;2022-07-29T05:13:29;23.52;;;12.65;;
30818;SDS011;17546;42.674;23.284;2022-07-29T05:15:54;23.77;;;13.50;;
30818;SDS011;17546;42.674;23.284;2022-07-29T05:18:20;23.30;;;13.98;;
30818;SDS011;17546;42.674;23.284;2022-07-29T05:20:46;25.00;;;13.98;;
30818;SDS011;17546;42.674;23.284;2022-07-29T05:23:12;30.70;;;14.65;;
30818;SDS011;17546;42.674;23.284;2022-07-29T05:25:40;24.42;;;14.02;;
30818;SDS011;17546;42.674;23.284;2022-07-29T05:28:06;21.98;;;13.48;;
30818;SDS011;17546;42.674;23.284;2022-07-29T05:30:31;25.25;;;12.20;;
30818;SDS011;17546;42.674;23.284;2022-07-29T05:32:57;17.33;;;10.05;;
30818;SDS011;17546;42.674;23.284;2022-07-29T05:35:22;15.00;;;8.35;;
30818;SDS011;17546;42.674;23.284;2022-07-29T05:37:47;17.90;;;8.63;;
30818;SDS011;17546;42.674;23.284;2022-07-29T05:40:13;13.93;;;8.20;;
30818;SDS011;17546;42.674;23.284;2022-07-29T05:42:39;18.05;;;8.23;;
30818;SDS011;17546;42.674;23.284;2022-07-29T05:45:04;18.30;;;8.07;;
30818;SDS011;17546;42.674;23.284;2022-07-29T05:47:30;16.02;;;7.85;;
30818;SDS011;17546;42.674;23.284;2022-07-29T05:49:56;16.80;;;8.68;;
30818;SDS011;17546;42.674;23.284;2022-07-29T05:52:22;17.98;;;8.80;;
30818;SDS011;17546;42.674;23.284;2022-07-29T05:54:47;14.52;;;8.73;;
30818;SDS011;17546;42.674;23.284;2022-07-29T05:57:17;18.42;;;8.52;;
30818;SDS011;17546;42.674;23.284;2022-07-29T05:59:46;20.73;;;8.80;;
30818;SDS011;17546;42.674;23.284;2022-07-29T06:02:12;16.73;;;8.75;;
30818;SDS011;17546;42.674;23.284;2022-07-29T06:04:38;14.45;;;8.55;;
30818;SDS011;17546;42.674;23.284;2022-07-29T06:07:03;21.65;;;8.80;;
30818;SDS011;17546;42.674;23.284;2022-07-29T06:09:29;15.07;;;8.43;;
30818;SDS011;17546;42.674;23.284;2022-07-29T06:11:54;20.17;;;9.35;;
30818;SDS011;17546;42.674;23.284;2022-07-29T06:14:20;15.13;;;8.27;;
30818;SDS011;17546;42.674;23.284;2022-07-29T06:16:45;20.77;;;7.65;;
30818;SDS011;17546;42.674;23.284;2022-07-29T06:19:10;16.50;;;7.15;;
30818;SDS011;17546;42.674;23.284;2022-07-29T06:21:36;18.33;;;7.32;;
30818;SDS011;17546;42.674;23.284;2022-07-29T06:24:07;17.85;;;7.10;;
30818;SDS011;17546;42.674;23.284;2022-07-29T06:26:32;13.90;;;7.30;;
30818;SDS011;17546;42.674;23.284;2022-07-29T06:28:58;15.52;;;6.70;;
30818;SDS011;17546;42.674;23.284;2022-07-29T06:31:24;19.63;;;6.65;;
30818;SDS011;17546;42.674;23.284;2022-07-29T06:33:49;18.30;;;7.20;;
30818;SDS011;17546;42.674;23.284;2022-07-29T06:36:15;12.50;;;6.20;;
30818;SDS011;17546;42.674;23.284;2022-07-29T06:38:40;13.75;;;6.40;;
30818;SDS011;17546;42.674;23.284;2022-07-29T06:41:06;15.38;;;10.43;;
30818;SDS011;17546;42.674;23.284;2022-07-29T06:43:38;17.77;;;6.93;;
30818;SDS011;17546;42.674;23.284;2022-07-29T06:46:10;9.35;;;5.93;;
30818;SDS011;17546;42.674;23.284;2022-07-29T06:48:41;11.30;;;6.00;;
30818;SDS011;17546;42.674;23.284;2022-07-29T06:51:08;10.98;;;5.65;;
30818;SDS011;17546;42.674;23.284;2022-07-29T06:53:34;14.38;;;5.90;;
30818;SDS011;17546;42.674;23.284;2022-07-29T06:56:01;13.15;;;5.95;;
30818;SDS011;17546;42.674;23.284;2022-07-29T06:58:29;38.65;;;6.78;;
30818;SDS011;17546;42.674;23.284;2022-07-29T07:00:55;15.18;;;6.00;;
30818;SDS011;17546;42.674;23.284;2022-07-29T07:03:22;13.57;;;5.80;;
30818;SDS011;17546;42.674;23.284;2022-07-29T07:05:47;13.55;;;5.53;;
30818;SDS011;17546;42.674;23.284;2022-07-29T07:08:13;15.18;;;5.78;;
30818;SDS011;17546;42.674;23.284;2022-07-29T07:10:40;15.95;;;5.40;;
30818;SDS011;17546;42.674;23.284;2022-07-29T07:13:06;9.50;;;5.00;;
30818;SDS011;17546;42.674;23.284;2022-07-29T07:15:32;13.63;;;5.32;;
30818;SDS011;17546;42.674;23.284;2022-07-29T07:17:59;18.52;;;5.63;;
30818;SDS011;17546;42.674;23.284;2022-07-29T07:20:26;12.63;;;5.30;;
30818;SDS011;17546;42.674;23.284;2022-07-29T07:22:51;11.23;;;5.32;;
30818;SDS011;17546;42.674;23.284;2022-07-29T07:25:17;10.90;;;5.35;;
30818;SDS011;17546;42.674;23.284;2022-07-29T07:27:43;12.07;;;4.65;;
30818;SDS011;17546;42.674;23.284;2022-07-29T07:30:10;9.70;;;5.05;;
30818;SDS011;17546;42.674;23.284;2022-07-29T07:32:35;8.27;;;4.70;;
30818;SDS011;17546;42.674;23.284;2022-07-29T07:35:02;11.07;;;5.28;;
30818;SDS011;17546;42.674;23.284;2022-07-29T07:37:31;16.00;;;4.88;;
30818;SDS011;17546;42.674;23.284;2022-07-29T07:39:56;10.05;;;4.95;;
30818;SDS011;17546;42.674;23.284;2022-07-29T07:42:22;14.60;;;5.07;;
30818;SDS011;17546;42.674;23.284;2022-07-29T07:44:48;11.15;;;5.15;;
30818;SDS011;17546;42.674;23.284;2022-07-29T07:47:16;17.88;;;5.22;;
30818;SDS011;17546;42.674;23.284;2022-07-29T07:49:45;8.50;;;4.55;;
30818;SDS011;17546;42.674;23.284;2022-07-29T07:52:12;10.40;;;4.57;;
30818;SDS011;17546;42.674;23.284;2022-07-29T07:54:38;11.45;;;4.43;;
30818;SDS011;17546;42.674;23.284;2022-07-29T07:57:04;12.75;;;4.45;;
30818;SDS011;17546;42.674;23.284;2022-07-29T07:59:29;9.57;;;4.47;;
30818;SDS011;17546;42.674;23.284;2022-07-29T08:01:55;9.35;;;4.20;;
30818;SDS011;17546;42.674;23.284;2022-07-29T08:04:20;7.80;;;4.25;;
30818;SDS011;17546;42.674;23.284;2022-07-29T08:06:45;8.82;;;4.32;;
30818;SDS011;17546;42.674;23.284;2022-07-29T08:09:11;9.63;;;4.40;;
30818;SDS011;17546;42.674;23.284;2022-07-29T08:11:36;13.80;;;3.90;;
30818;SDS011;17546;42.674;23.284;2022-07-29T08:14:02;10.50;;;4.07;;
30818;SDS011;17546;42.674;23.284;2022-07-29T08:16:28;6.30;;;3.88;;
30818;SDS011;17546;42.674;23.284;2022-07-29T08:18:53;10.30;;;3.33;;
30818;SDS011;17546;42.674;23.284;2022-07-29T08:21:22;9.10;;;3.55;;
30818;SDS011;17546;42.674;23.284;2022-07-29T08:23:49;8.93;;;3.75;;
30818;SDS011;17546;42.674;23.284;2022-07-29T08:26:18;12.43;;;4.00;;
30818;SDS011;17546;42.674;23.284;2022-07-29T08:28:44;8.65;;;4.18;;
30818;SDS011;17546;42.674;23.284;2022-07-29T08:31:15;9.77;;;3.65;;
30818;SDS011;17546;42.674;23.284;2022-07-29T08:33:41;8.75;;;3.42;;
30818;SDS011;17546;42.674;23.284;2022-07-29T08:36:07;6.10;;;3.70;;
30818;SDS011;17546;42.674;23.284;2022-07-29T08:38:33;5.63;;;3.45;;
30818;SDS011;17546;42.674;23.284;2022-07-29T08:41:03;8.95;;;3.80;;
30818;SDS011;17546;42.674;23.284;2022-07-29T08:43:28;3.95;;;3.40;;
30818;SDS011;17546;42.674;23.284;2022-07-29T08:45:54;8.23;;;4.00;;
30818;SDS011;17546;42.674;23.284;2022-07-29T08:48:20;15.88;;;4.43;;
30818;SDS011;17546;42.674;23.284;2022-07-29T08:50:48;78.30;;;11.23;;
30818;SDS011;17546;42.674;23.284;2022-07-29T08:53:17;46.42;;;8.07;;
30818;SDS011;17546;42.674;23.284;2022-07-29T08:55:44;11.95;;;3.80;;
30818;SDS011;17546;42.674;23.284;2022-07-29T08:58:11;70.03;;;12.00;;
30818;SDS011;17546;42.674;23.284;2022-07-29T09:00:41;12.05;;;3.83;;
30818;SDS011;17546;42.674;23.284;2022-07-29T09:03:15;8.02;;;3.20;;
30818;SDS011;17546;42.674;23.284;2022-07-29T09:05:44;9.10;;;3.10;;
30818;SDS011;17546;42.674;23.284;2022-07-29T09:08:11;10.60;;;3.00;;
30818;SDS011;17546;42.674;23.284;2022-07-29T09:10:37;12.80;;;3.53;;
30818;SDS011;17546;42.674;23.284;2022-07-29T09:13:03;6.32;;;3.30;;
30818;SDS011;17546;42.674;23.284;2022-07-29T09:15:29;8.65;;;3.83;;
30818;SDS011;17546;42.674;23.284;2022-07-29T09:17:54;11.85;;;3.75;;
30818;SDS011;17546;42.674;23.284;2022-07-29T09:20:21;12.38;;;4.10;;
30818;SDS011;17546;42.674;23.284;2022-07-29T09:22:48;34.63;;;6.30;;
30818;SDS011;17546;42.674;23.284;2022-07-29T09:25:35;48.03;;;5.93;;
30818;SDS011;17546;42.674;23.284;2022-07-29T09:30:33;10.98;;;3.55;;
30818;SDS011;17546;42.674;23.284;2022-07-29T09:33:00;9.43;;;2.95;;
30818;SDS011;17546;42.674;23.284;2022-07-29T09:35:28;3.35;;;3.00;;
30818;SDS011;17546;42.674;23.284;2022-07-29T09:37:54;6.25;;;3.45;;
30818;SDS011;17546;42.674;23.284;2022-07-29T09:40:21;6.78;;;3.20;;
30818;SDS011;17546;42.674;23.284;2022-07-29T09:42:48;5.32;;;3.33;;
30818;SDS011;17546;42.674;23.284;2022-07-29T09:45:27;7.88;;;3.08;;
30818;SDS011;17546;42.674;23.284;2022-07-29T09:47:57;16.83;;;4.60;;
30818;SDS011;17546;42.674;23.284;2022-07-29T09:50:38;10.55;;;3.67;;
30818;SDS011;17546;42.674;23.284;2022-07-29T09:53:05;19.25;;;4.40;;
30818;SDS011;17546;42.674;23.284;2022-07-29T09:55:31;31.73;;;4.90;;
30818;SDS011;17546;42.674;23.284;2022-07-29T09:58:19;30.25;;;4.95;;
30818;SDS011;17546;42.674;23.284;2022-07-29T10:00:46;23.70;;;4.63;;
30818;SDS011;17546;42.674;23.284;2022-07-29T10:03:12;9.13;;;3.78;;
30818;SDS011;17546;42.674;23.284;2022-07-29T10:05:38;9.35;;;3.10;;
30818;SDS011;17546;42.674;23.284;2022-07-29T10:08:05;7.63;;;3.35;;
30818;SDS011;17546;42.674;23.284;2022-07-29T10:10:33;49.53;;;6.10;;
30818;SDS011;17546;42.674;23.284;2022-07-29T10:13:06;9.15;;;4.03;;
30818;SDS011;17546;42.674;23.284;2022-07-29T10:15:35;7.82;;;4.28;;
30818;SDS011;17546;42.674;23.284;2022-07-29T10:18:07;14.27;;;3.88;;
30818;SDS011;17546;42.674;23.284;2022-07-29T10:20:33;7.93;;;3.75;;
30818;SDS011;17546;42.674;23.284;2022-07-29T10:23:00;6.88;;;3.85;;
30818;SDS011;17546;42.674;23.284;2022-07-29T10:25:26;10.10;;;3.75;;
30818;SDS011;17546;42.674;23.284;2022-07-29T10:27:52;9.27;;;3.63;;
30818;SDS011;17546;42.674;23.284;2022-07-29T10:30:19;7.15;;;3.47;;
30818;SDS011;17546;42.674;23.284;2022-07-29T10:44:30;9.60;;;4.07;;
30818;SDS011;17546;42.674;23.284;2022-07-29T10:46:56;10.40;;;3.47;;
30818;SDS011;17546;42.674;23.284;2022-07-29T10:49:25;5.15;;;3.33;;
30818;SDS011;17546;42.674;23.284;2022-07-29T10:52:05;7.15;;;4.05;;
30818;SDS011;17546;42.674;23.284;2022-07-29T10:57:12;10.52;;;3.85;;
30818;SDS011;17546;42.674;23.284;2022-07-29T10:59:39;6.22;;;4.22;;
30818;SDS011;17546;42.674;23.284;2022-07-29T11:07:34;16.48;;;4.57;;
30818;SDS011;17546;42.674;23.284;2022-07-29T11:15:29;11.95;;;3.78;;
30818;SDS011;17546;42.674;23.284;2022-07-29T11:20:44;8.00;;;4.03;;
30818;SDS011;17546;42.674;23.284;2022-07-29T11:23:24;7.82;;;4.38;;
30818;SDS011;17546;42.674;23.284;2022-07-29T11:31:39;6.88;;;3.80;;
30818;SDS011;17546;42.674;23.284;2022-07-29T11:34:17;10.73;;;4.15;;
30818;SDS011;17546;42.674;23.284;2022-07-29T11:47:24;8.50;;;4.25;;
30818;SDS011;17546;42.674;23.284;2022-07-29T11:49:52;9.80;;;4.45;;
30818;SDS011;17546;42.674;23.284;2022-07-29T11:52:19;6.95;;;4.18;;
30818;SDS011;17546;42.674;23.284;2022-07-29T11:54:47;6.93;;;4.00;;
30818;SDS011;17546;42.674;23.284;2022-07-29T11:57:20;12.48;;;4.22;;
30818;SDS011;17546;42.674;23.284;2022-07-29T11:59:47;6.20;;;4.05;;
30818;SDS011;17546;42.674;23.284;2022-07-29T12:02:13;7.82;;;4.13;;
30818;SDS011;17546;42.674;23.284;2022-07-29T12:04:55;8.73;;;4.30;;
30818;SDS011;17546;42.674;23.284;2022-07-29T12:07:28;9.77;;;4.25;;
30818;SDS011;17546;42.674;23.284;2022-07-29T12:09:54;8.82;;;4.38;;
30818;SDS011;17546;42.674;23.284;2022-07-29T12:12:20;7.20;;;3.97;;
30818;SDS011;17546;42.674;23.284;2022-07-29T12:14:46;8.82;;;4.00;;
30818;SDS011;17546;42.674;23.284;2022-07-29T12:17:25;7.07;;;3.97;;
30818;SDS011;17546;42.674;23.284;2022-07-29T12:19:58;12.52;;;3.90;;
30818;SDS011;17546;42.674;23.284;2022-07-29T12:22:29;13.95;;;4.65;;
30818;SDS011;17546;42.674;23.284;2022-07-29T12:25:00;14.50;;;4.57;;
30818;SDS011;17546;42.674;23.284;2022-07-29T12:27:28;6.20;;;3.97;;
30818;SDS011;17546;42.674;23.284;2022-07-29T12:29:57;10.00;;;4.57;;
30818;SDS011;17546;42.674;23.284;2022-07-29T12:32:30;10.07;;;4.75;;
30818;SDS011;17546;42.674;23.284;2022-07-29T12:34:57;7.10;;;3.72;;
30818;SDS011;17546;42.674;23.284;2022-07-29T12:37:22;7.15;;;3.72;;
30818;SDS011;17546;42.674;23.284;2022-07-29T12:39:49;9.68;;;4.78;;
30818;SDS011;17546;42.674;23.284;2022-07-29T12:42:15;6.93;;;4.70;;
30818;SDS011;17546;42.674;23.284;2022-07-29T12:44:44;8.30;;;4.03;;
30818;SDS011;17546;42.674;23.284;2022-07-29T12:47:14;10.77;;;5.80;;
30818;SDS011;17546;42.674;23.284;2022-07-29T12:49:41;11.45;;;9.82;;
30818;SDS011;17546;42.674;23.284;2022-07-29T12:54:55;7.72;;;3.92;;
30818;SDS011;17546;42.674;23.284;2022-07-29T12:57:20;18.83;;;4.85;;
30818;SDS011;17546;42.674;23.284;2022-07-29T13:00:00;6.53;;;4.45;;
30818;SDS011;17546;42.674;23.284;2022-07-29T13:02:38;5.32;;;4.03;;
30818;SDS011;17546;42.674;23.284;2022-07-29T13:05:05;12.43;;;4.55;;
30818;SDS011;17546;42.674;23.284;2022-07-29T13:07:32;9.13;;;4.70;;
30818;SDS011;17546;42.674;23.284;2022-07-29T13:10:16;8.93;;;4.60;;
30818;SDS011;17546;42.674;23.284;2022-07-29T13:15:29;6.35;;;4.15;;
30818;SDS011;17546;42.674;23.284;2022-07-29T13:17:55;10.90;;;4.55;;
30818;SDS011;17546;42.674;23.284;2022-07-29T13:20:23;8.18;;;4.50;;
30818;SDS011;17546;42.674;23.284;2022-07-29T13:22:49;13.25;;;4.78;;
30818;SDS011;17546;42.674;23.284;2022-07-29T13:25:22;7.28;;;4.15;;
30818;SDS011;17546;42.674;23.284;2022-07-29T13:27:53;8.57;;;4.28;;
30818;SDS011;17546;42.674;23.284;2022-07-29T13:30:19;10.20;;;4.38;;
30818;SDS011;17546;42.674;23.284;2022-07-29T13:32:46;11.07;;;3.95;;
30818;SDS011;17546;42.674;23.284;2022-07-29T13:35:12;8.30;;;4.35;;
30818;SDS011;17546;42.674;23.284;2022-07-29T13:37:38;7.72;;;3.88;;
30818;SDS011;17546;42.674;23.284;2022-07-29T13:40:04;8.95;;;4.28;;
30818;SDS011;17546;42.674;23.284;2022-07-29T13:42:33;8.15;;;4.15;;
30818;SDS011;17546;42.674;23.284;2022-07-29T13:44:59;11.38;;;4.20;;
30818;SDS011;17546;42.674;23.284;2022-07-29T13:47:25;11.40;;;4.43;;
30818;SDS011;17546;42.674;23.284;2022-07-29T13:49:51;5.97;;;4.60;;
30818;SDS011;17546;42.674;23.284;2022-07-29T13:52:18;7.13;;;4.25;;
30818;SDS011;17546;42.674;23.284;2022-07-29T13:54:44;6.97;;;4.60;;
30818;SDS011;17546;42.674;23.284;2022-07-29T13:57:11;12.65;;;5.18;;
30818;SDS011;17546;42.674;23.284;2022-07-29T13:59:37;7.20;;;4.20;;
30818;SDS011;17546;42.674;23.284;2022-07-29T14:02:04;15.07;;;4.55;;
30818;SDS011;17546;42.674;23.284;2022-07-29T14:04:30;5.65;;;3.50;;
30818;SDS011;17546;42.674;23.284;2022-07-29T14:06:56;13.95;;;4.88;;
30818;SDS011;17546;42.674;23.284;2022-07-29T14:09:21;8.38;;;4.18;;
30818;SDS011;17546;42.674;23.284;2022-07-29T14:11:47;9.05;;;4.00;;
30818;SDS011;17546;42.674;23.284;2022-07-29T14:14:14;8.30;;;4.40;;
30818;SDS011;17546;42.674;23.284;2022-07-29T14:16:40;8.95;;;4.10;;
30818;SDS011;17546;42.674;23.284;2022-07-29T14:19:05;6.32;;;3.97;;
30818;SDS011;17546;42.674;23.284;2022-07-29T14:21:31;8.13;;;4.50;;
30818;SDS011;17546;42.674;23.284;2022-07-29T14:23:57;5.78;;;4.18;;
30818;SDS011;17546;42.674;23.284;2022-07-29T14:26:23;7.65;;;4.60;;
30818;SDS011;17546;42.674;23.284;2022-07-29T14:28:48;11.75;;;4.65;;
30818;SDS011;17546;42.674;23.284;2022-07-29T14:31:15;6.32;;;4.10;;
30818;SDS011;17546;42.674;23.284;2022-07-29T14:33:40;9.75;;;4.55;;
30818;SDS011;17546;42.674;23.284;2022-07-29T14:36:07;10.05;;;4.57;;
30818;SDS011;17546;42.674;23.284;2022-07-29T14:38:32;8.68;;;4.35;;
30818;SDS011;17546;42.674;23.284;2022-07-29T14:40:58;6.85;;;4.32;;
30818;SDS011;17546;42.674;23.284;2022-07-29T14:43:23;9.32;;;4.65;;
30818;SDS011;17546;42.674;23.284;2022-07-29T14:45:49;11.10;;;4.65;;
30818;SDS011;17546;42.674;23.284;2022-07-29T14:48:14;6.90;;;4.32;;
30818;SDS011;17546;42.674;23.284;2022-07-29T14:50:40;5.93;;;4.38;;
30818;SDS011;17546;42.674;23.284;2022-07-29T14:53:05;7.47;;;4.82;;
30818;SDS011;17546;42.674;23.284;2022-07-29T14:55:31;7.97;;;5.03;;
30818;SDS011;17546;42.674;23.284;2022-07-29T14:57:56;5.70;;;5.07;;
30818;SDS011;17546;42.674;23.284;2022-07-29T15:00:22;10.45;;;4.60;;
30818;SDS011;17546;42.674;23.284;2022-07-29T15:02:48;9.13;;;4.90;;
30818;SDS011;17546;42.674;23.284;2022-07-29T15:05:14;19.20;;;5.10;;
30818;SDS011;17546;42.674;23.284;2022-07-29T15:07:40;15.48;;;4.57;;
30818;SDS011;17546;42.674;23.284;2022-07-29T15:10:05;15.15;;;5.18;;
30818;SDS011;17546;42.674;23.284;2022-07-29T15:12:31;9.75;;;4.72;;
30818;SDS011;17546;42.674;23.284;2022-07-29T15:14:57;13.43;;;6.95;;
30818;SDS011;17546;42.674;23.284;2022-07-29T15:17:23;10.20;;;6.75;;
30818;SDS011;17546;42.674;23.284;2022-07-29T15:19:48;12.43;;;5.75;;
30818;SDS011;17546;42.674;23.284;2022-07-29T15:22:14;8.88;;;5.50;;
30818;SDS011;17546;42.674;23.284;2022-07-29T15:24:39;8.77;;;4.88;;
30818;SDS011;17546;42.674;23.284;2022-07-29T15:27:05;24.35;;;7.95;;
30818;SDS011;17546;42.674;23.284;2022-07-29T15:29:30;10.88;;;4.82;;
30818;SDS011;17546;42.674;23.284;2022-07-29T15:31:55;8.00;;;4.53;;